Zinc, Arkansas
Current Conditions -  °F | °C
As of 6:53 AM on Friday 31 Oct 2014 (Local Time) from KHRO Reporting Station
Overcast Overcast  
Wind Chill: 43°   Ceiling: 3900
Heat Index: 48°   Visibility: 10mi
Dew Point: 40°   Wind: 13mph
Humidity: 74%   Direction: 330°NNW
Pressure: 30.2"   Gusts: NA
Location:  36.2615°N, 93.1062°W
Report Text: KHRO 311153Z AUTO 33011KT 10SM BKN039 OVC047 09/04 A3020 RMK AO2 SLP226 T00890044 10111 20083 53025
Loading
Personal Weather Stations






























Interactive Weather Map
Tropical Storm Tracking
New forecast layout! Learn more

10-Day Weather Forecast

Advertisements
Track Severe Weather on mobile